createdAt,value
2019-04-04T00:01:52.978Z,20.90
2019-04-04T00:03:56.934Z,19.10
2019-04-04T00:06:00.821Z,20.70
2019-04-04T00:08:05.090Z,20.03
2019-04-04T00:10:08.981Z,20.60
2019-04-04T00:12:13.068Z,20.57
2019-04-04T00:14:16.990Z,20.17
2019-04-04T00:16:20.877Z,22.40
2019-04-04T00:18:25.524Z,20.93
2019-04-04T00:20:31.771Z,21.50
2019-04-04T00:22:36.255Z,21.50
2019-04-04T00:24:40.160Z,19.23
2019-04-04T00:26:44.069Z,18.20
2019-04-04T00:28:47.953Z,20.03
2019-04-04T00:30:51.882Z,20.63
2019-04-04T00:32:55.773Z,20.07
2019-04-04T00:35:00.395Z,20.97
2019-04-04T00:37:04.937Z,21.37
2019-04-04T00:39:09.919Z,20.77
2019-04-04T00:41:14.106Z,20.03
2019-04-04T00:43:20.840Z,20.07
2019-04-04T00:45:23.578Z,19.47
2019-04-04T00:47:27.496Z,18.57
2019-04-04T00:49:31.411Z,19.70
2019-04-04T00:51:38.803Z,18.27
2019-04-04T00:53:42.710Z,19.50
2019-04-04T00:55:46.961Z,18.07
2019-04-04T00:57:51.050Z,18.93
2019-04-04T00:59:54.939Z,19.77
2019-04-04T01:01:58.808Z,20.53
2019-04-04T01:04:02.754Z,19.23
2019-04-04T01:06:06.691Z,19.57
2019-04-04T01:08:10.582Z,18.43
2019-04-04T01:10:14.521Z,19.37
2019-04-04T01:12:21.442Z,19.33
2019-04-04T01:14:23.994Z,16.90
2019-04-04T01:16:28.122Z,17.57
2019-04-04T01:18:32.059Z,22.00
2019-04-04T01:20:35.941Z,19.33
2019-04-04T01:22:39.866Z,20.50
2019-04-04T01:24:43.755Z,21.20
2019-04-04T01:26:47.729Z,19.10
2019-04-04T01:28:51.638Z,19.03
2019-04-04T01:30:55.497Z,20.33
2019-04-04T01:32:59.429Z,18.83
2019-04-04T01:35:03.564Z,21.73
2019-04-04T01:37:07.457Z,20.67
2019-04-04T01:39:11.690Z,20.87
2019-04-04T01:41:15.620Z,18.57
2019-04-04T01:43:19.566Z,18.67
2019-04-04T01:45:23.792Z,20.70
2019-04-04T01:47:35.151Z,21.70
2019-04-04T01:49:39.517Z,22.30
2019-04-04T01:51:43.433Z,23.23
2019-04-04T01:53:47.327Z,23.40
2019-04-04T01:55:51.265Z,24.23
2019-04-04T01:57:55.527Z,22.60
2019-04-04T01:59:59.481Z,25.20
2019-04-04T02:02:03.343Z,22.63
2019-04-04T02:04:07.216Z,24.80
2019-04-04T02:06:11.160Z,23.97
2019-04-04T02:08:15.030Z,23.77
2019-04-04T02:10:18.946Z,21.87
2019-04-04T02:12:22.861Z,22.20
2019-04-04T02:14:26.766Z,22.33
2019-04-04T02:16:30.687Z,23.33
2019-04-04T02:18:34.599Z,22.30
2019-04-04T02:20:38.533Z,21.50
2019-04-04T02:22:42.460Z,23.00
2019-04-04T02:24:46.366Z,24.40
2019-04-04T02:26:50.533Z,22.70
2019-04-04T02:28:54.575Z,20.70
2019-04-04T02:30:58.464Z,21.40
2019-04-04T02:33:02.389Z,21.20
2019-04-04T02:35:10.571Z,20.70
2019-04-04T02:37:13.358Z,20.97
2019-04-04T02:39:18.146Z,19.87
2019-04-04T02:41:22.848Z,20.70
2019-04-04T02:43:28.360Z,20.07
2019-04-04T02:45:32.287Z,21.00
2019-04-04T02:47:36.218Z,23.47
2019-04-04T02:49:40.102Z,19.97
2019-04-04T02:51:44.071Z,21.23
2019-04-04T02:53:51.745Z,20.90
2019-04-04T02:55:53.544Z,20.83
2019-04-04T02:57:57.497Z,20.70
2019-04-04T03:00:01.427Z,23.27
2019-04-04T03:02:06.113Z,19.73
2019-04-04T03:04:13.575Z,20.67
2019-04-04T03:06:15.795Z,20.30
2019-04-04T03:08:19.664Z,19.37
2019-04-04T03:10:23.598Z,22.77
2019-04-04T03:12:27.489Z,21.47
2019-04-04T03:14:36.280Z,22.23
2019-04-04T03:16:36.992Z,20.67
2019-04-04T03:18:40.863Z,18.83
2019-04-04T03:20:49.057Z,18.70
2019-04-04T03:22:50.354Z,18.17
2019-04-04T03:24:54.241Z,20.70
2019-04-04T03:26:58.173Z,20.80
2019-04-04T03:29:04.824Z,20.50
2019-04-04T03:31:07.748Z,20.83
2019-04-04T03:33:11.635Z,20.53
2019-04-04T03:35:15.533Z,21.53
2019-04-04T03:37:19.492Z,22.27
2019-04-04T03:39:23.404Z,22.70
2019-04-04T03:41:27.620Z,18.77
2019-04-04T03:43:32.934Z,21.67
2019-04-04T03:45:37.223Z,19.73
2019-04-04T03:47:44.606Z,21.33
2019-04-04T03:49:46.666Z,19.20
2019-04-04T03:51:50.610Z,19.80
2019-04-04T03:53:56.074Z,18.67
2019-04-04T03:56:01.346Z,24.10
2019-04-04T03:58:05.565Z,33.87
2019-04-04T04:00:10.467Z,22.23
2019-04-04T04:02:17.826Z,15.80
2019-04-04T04:04:19.994Z,15.27
2019-04-04T04:06:23.919Z,14.90
2019-04-04T04:08:27.950Z,13.33
2019-04-04T04:10:33.285Z,13.30
2019-04-04T04:12:37.371Z,12.70
2019-04-04T04:14:41.298Z,16.47
2019-04-04T04:16:45.201Z,16.13
2019-04-04T04:18:51.784Z,16.27
2019-04-04T04:20:54.826Z,15.43
2019-04-04T04:22:59.522Z,16.63
2019-04-04T04:25:03.737Z,14.80
2019-04-04T04:27:07.781Z,17.53
2019-04-04T04:29:11.674Z,16.33
2019-04-04T04:31:15.768Z,19.93
2019-04-04T04:33:19.809Z,16.10
2019-04-04T04:35:23.794Z,19.00
2019-04-04T04:37:27.849Z,17.20
2019-04-04T04:39:36.057Z,14.57
2019-04-04T04:41:37.300Z,15.07
2019-04-04T04:43:41.287Z,13.67
2019-04-04T04:45:45.289Z,15.87
2019-04-04T04:47:49.244Z,14.77
2019-04-04T04:49:55.313Z,15.20
2019-04-04T04:51:58.762Z,14.70
2019-04-04T04:54:02.654Z,18.37
2019-04-04T04:56:06.592Z,17.30
2019-04-04T04:58:11.229Z,16.07
2019-04-04T05:00:16.180Z,18.70
2019-04-04T05:02:22.350Z,17.50
2019-04-04T05:04:28.300Z,17.53
2019-04-04T05:06:35.365Z,18.80
2019-04-04T05:08:40.736Z,17.33
2019-04-04T05:10:45.674Z,16.50
2019-04-04T05:12:48.776Z,15.40
2019-04-04T05:14:52.800Z,16.43
2019-04-04T05:16:56.712Z,16.47
2019-04-04T05:19:00.596Z,12.30
2019-04-04T05:21:04.544Z,14.13
2019-04-04T05:23:10.986Z,13.10
2019-04-04T05:25:14.178Z,12.17
2019-04-04T05:27:18.120Z,11.97
2019-04-04T05:29:22.054Z,10.67
2019-04-04T05:31:25.962Z,10.87
2019-04-04T05:33:31.540Z,12.07
2019-04-04T05:35:37.682Z,11.57
2019-04-04T05:37:41.221Z,11.40
2019-04-04T05:39:46.972Z,13.10
2019-04-04T05:41:50.775Z,12.00
2019-04-04T05:43:54.690Z,10.20
2019-04-04T05:45:58.810Z,11.07
2019-04-04T05:48:02.761Z,12.17
2019-04-04T05:50:09.026Z,11.83
2019-04-04T05:52:12.847Z,10.83
2019-04-04T05:54:16.731Z,11.07
2019-04-04T05:56:20.649Z,10.20
2019-04-04T05:58:24.545Z,12.30
2019-04-04T06:00:28.441Z,10.30
2019-04-04T06:02:32.346Z,11.53
2019-04-04T06:04:36.246Z,11.43
2019-04-04T06:06:40.160Z,12.37
2019-04-04T06:08:44.131Z,12.87
2019-04-04T06:10:50.028Z,15.60
2019-04-04T06:12:54.327Z,11.73
2019-04-04T06:15:00.517Z,14.90
2019-04-04T06:17:05.089Z,14.03
2019-04-04T06:19:13.969Z,12.47
2019-04-04T06:21:18.480Z,13.73
2019-04-04T06:23:23.094Z,13.40
2019-04-04T06:25:27.108Z,15.23
2019-04-04T06:27:31.001Z,14.70
2019-04-04T06:29:34.885Z,15.40
2019-04-04T06:31:38.815Z,13.93
2019-04-04T06:33:42.728Z,17.60
2019-04-04T06:35:47.860Z,17.73
2019-04-04T06:37:52.260Z,16.77
2019-04-04T06:39:58.598Z,18.07
2019-04-04T06:42:03.238Z,14.27
2019-04-04T06:44:07.493Z,16.80
2019-04-04T06:46:11.394Z,13.77
2019-04-04T06:48:15.326Z,14.30
2019-04-04T06:50:19.752Z,15.33
2019-04-04T06:52:23.721Z,13.60
2019-04-04T06:54:27.639Z,13.83
2019-04-04T06:56:32.010Z,13.63
2019-04-04T06:58:40.003Z,13.80
2019-04-04T07:00:42.455Z,13.43
2019-04-04T07:02:47.431Z,14.57
2019-04-04T07:04:51.532Z,15.07
2019-04-04T07:06:55.472Z,15.80
2019-04-04T07:08:59.392Z,14.27
2019-04-04T07:11:06.990Z,14.63
2019-04-04T07:13:20.931Z,15.70
2019-04-04T07:15:15.939Z,16.57
2019-04-04T07:17:20.078Z,16.03
2019-04-04T07:19:23.953Z,16.40
2019-04-04T07:21:27.866Z,16.73
2019-04-04T07:23:31.773Z,16.77
2019-04-04T07:25:35.914Z,17.60
2019-04-04T07:27:40.129Z,17.50
2019-04-04T07:29:44.112Z,16.50
2019-04-04T07:31:47.990Z,17.63
2019-04-04T07:33:52.927Z,17.43
2019-04-04T07:35:56.826Z,17.90
2019-04-04T07:38:00.733Z,18.17
2019-04-04T07:40:08.550Z,18.63
2019-04-04T07:42:15.571Z,17.63
2019-04-04T07:44:17.962Z,20.00
2019-04-04T07:46:21.873Z,19.70
2019-04-04T07:48:28.368Z,18.47
2019-04-04T07:50:31.405Z,19.97
2019-04-04T07:52:35.341Z,19.77
2019-04-04T07:54:39.286Z,18.13
2019-04-04T07:56:46.885Z,17.07
2019-04-04T07:58:48.748Z,17.70
2019-04-04T08:00:52.666Z,19.97
2019-04-04T08:02:56.569Z,18.80
2019-04-04T08:05:00.494Z,19.33
2019-04-04T08:07:04.502Z,20.17
2019-04-04T08:09:08.621Z,19.33
2019-04-04T08:11:13.431Z,20.50
2019-04-04T08:13:17.551Z,21.00
2019-04-04T08:15:21.419Z,20.27
2019-04-04T08:17:25.300Z,22.43
2019-04-04T08:19:29.230Z,20.77
2019-04-04T08:21:33.228Z,20.67
2019-04-04T08:23:37.215Z,20.73
2019-04-04T08:25:41.176Z,19.20
2019-04-04T08:27:45.079Z,21.33
2019-04-04T08:29:49.037Z,14.93
2019-04-04T08:31:52.932Z,21.43
2019-04-04T08:33:56.817Z,21.00
2019-04-04T08:36:06.230Z,21.57
2019-04-04T08:38:06.418Z,21.03
2019-04-04T08:40:10.394Z,20.00
2019-04-04T08:42:14.310Z,20.23
2019-04-04T08:44:18.196Z,19.20
2019-04-04T08:46:22.123Z,19.37
2019-04-04T08:48:26.063Z,21.20
2019-04-04T08:50:29.963Z,20.60
2019-04-04T08:52:33.870Z,21.87
2019-04-04T08:54:37.793Z,20.57
2019-04-04T08:56:41.677Z,22.53
2019-04-04T08:58:45.569Z,23.23
2019-04-04T09:00:49.503Z,21.60
2019-04-04T09:02:53.400Z,22.43
2019-04-04T09:04:57.470Z,22.73
2019-04-04T09:07:01.335Z,25.07
2019-04-04T09:09:06.642Z,25.10
2019-04-04T09:11:10.573Z,23.40
2019-04-04T09:13:14.487Z,23.50
2019-04-04T09:15:18.398Z,25.03
2019-04-04T09:17:22.437Z,24.37
2019-04-04T09:19:26.342Z,22.87
2019-04-04T09:21:30.224Z,22.00
2019-04-04T09:23:34.159Z,21.70
2019-04-04T09:25:40.712Z,22.07
2019-04-04T09:27:43.658Z,22.87
2019-04-04T09:29:47.698Z,22.50
2019-04-04T09:31:51.591Z,22.43
2019-04-04T09:33:55.476Z,20.90
2019-04-04T09:35:59.469Z,22.00
2019-04-04T09:38:03.376Z,23.57
2019-04-04T09:40:07.748Z,22.27
2019-04-04T09:42:12.118Z,21.77
2019-04-04T09:44:16.188Z,24.37
2019-04-04T09:46:20.064Z,23.00
2019-04-04T09:48:24.135Z,23.43
2019-04-04T09:50:28.027Z,25.10
2019-04-04T09:52:31.920Z,24.73
2019-04-04T09:54:35.856Z,24.23
2019-04-04T09:56:39.750Z,24.43
2019-04-04T09:58:43.680Z,24.37
2019-04-04T10:00:49.430Z,23.83
2019-04-04T10:02:53.354Z,22.07
2019-04-04T10:04:57.261Z,22.27
2019-04-04T10:07:01.296Z,23.73
2019-04-04T10:09:15.606Z,20.33
2019-04-04T10:11:12.504Z,21.50
2019-04-04T10:13:16.539Z,20.80
2019-04-04T10:15:20.433Z,20.33
2019-04-04T10:17:24.319Z,20.90
2019-04-04T10:19:28.349Z,20.50
2019-04-04T10:21:32.227Z,20.10
2019-04-04T10:23:37.524Z,20.30
2019-04-04T10:25:41.587Z,19.93
2019-04-04T10:27:45.497Z,20.17
2019-04-04T10:29:49.406Z,20.00
2019-04-04T10:31:53.378Z,21.33
2019-04-04T10:33:57.287Z,21.60
2019-04-04T10:36:01.203Z,20.40
2019-04-04T10:38:05.184Z,21.83
2019-04-04T10:40:14.371Z,21.27
2019-04-04T10:42:18.814Z,22.37
2019-04-04T10:44:23.460Z,22.03
2019-04-04T10:46:28.884Z,22.40
2019-04-04T10:48:32.773Z,22.93
2019-04-04T10:50:36.694Z,22.60
2019-04-04T10:52:40.594Z,22.60
2019-04-04T10:54:44.509Z,23.20
2019-04-04T10:56:48.427Z,23.50
2019-04-04T10:58:52.350Z,23.03
2019-04-04T11:00:56.272Z,22.63
2019-04-04T11:03:00.155Z,22.20
2019-04-04T11:05:04.138Z,21.43
2019-04-04T11:07:08.169Z,22.33
2019-04-04T11:09:12.175Z,21.73
2019-04-04T11:11:16.077Z,21.70
2019-04-04T11:13:32.482Z,20.40
2019-04-04T11:15:25.577Z,21.43
2019-04-04T11:17:29.478Z,21.20
2019-04-04T11:19:33.401Z,21.87
2019-04-04T11:21:37.277Z,22.00
2019-04-04T11:23:41.303Z,21.60
2019-04-04T11:25:45.208Z,22.10
2019-04-04T11:27:49.096Z,21.50
2019-04-04T11:29:53.037Z,20.57
2019-04-04T11:31:56.972Z,19.83
2019-04-04T11:34:00.852Z,19.63
2019-04-04T11:36:04.926Z,20.40
2019-04-04T11:38:08.816Z,19.13
2019-04-04T11:40:12.736Z,19.40
2019-04-04T11:42:16.652Z,20.63
2019-04-04T11:44:20.563Z,19.80
2019-04-04T11:46:24.457Z,20.30
2019-04-04T11:48:28.396Z,19.17
2019-04-04T11:50:32.279Z,18.87
2019-04-04T11:52:36.229Z,18.70
2019-04-04T11:54:59.185Z,18.90
2019-04-04T11:57:03.104Z,18.73
2019-04-04T11:59:08.246Z,19.30
2019-04-04T12:01:13.802Z,20.03
2019-04-04T12:03:17.703Z,17.93
2019-04-04T12:05:21.619Z,20.10
2019-04-04T12:07:25.536Z,19.10
2019-04-04T12:09:29.461Z,20.10
2019-04-04T12:11:33.411Z,19.43
2019-04-04T12:13:37.317Z,19.03
2019-04-04T12:15:41.226Z,20.53
2019-04-04T12:17:45.149Z,18.67
2019-04-04T12:19:49.028Z,19.10
2019-04-04T12:21:53.003Z,18.27
2019-04-04T12:23:56.901Z,18.57
2019-04-04T12:26:00.785Z,16.87
2019-04-04T12:28:04.738Z,16.67
2019-04-04T12:30:09.745Z,17.17
2019-04-04T12:32:13.626Z,16.73
2019-04-04T12:34:17.525Z,18.03
2019-04-04T12:36:24.952Z,16.43
2019-04-04T12:38:27.046Z,16.87
2019-04-04T12:40:30.991Z,14.87
2019-04-04T12:42:34.867Z,15.37
2019-04-04T12:44:38.792Z,15.60
2019-04-04T12:46:42.718Z,15.20
2019-04-04T12:48:46.704Z,14.60
2019-04-04T12:50:50.652Z,14.53
2019-04-04T12:52:54.590Z,14.27
2019-04-04T12:54:58.574Z,15.17
2019-04-04T12:57:02.531Z,14.57
2019-04-04T12:59:06.405Z,15.17
2019-04-04T13:01:10.376Z,14.70
2019-04-04T13:03:14.281Z,15.60
2019-04-04T13:05:18.189Z,14.77
2019-04-04T13:07:22.154Z,17.40
2019-04-04T13:09:26.027Z,17.57
2019-04-04T13:11:29.932Z,15.97
2019-04-04T13:13:33.968Z,15.37
2019-04-04T13:15:37.871Z,16.93
2019-04-04T13:17:41.787Z,14.90
2019-04-04T13:19:45.776Z,14.83
2019-04-04T13:21:49.681Z,15.27
2019-04-04T13:23:53.573Z,15.07
2019-04-04T13:25:57.558Z,15.20
2019-04-04T13:28:01.480Z,17.20
2019-04-04T13:30:09.565Z,13.07
2019-04-04T13:32:13.532Z,14.50
2019-04-04T13:34:17.445Z,13.93
2019-04-04T13:36:21.358Z,13.53
2019-04-04T13:38:25.329Z,13.80
2019-04-04T13:40:29.234Z,14.53
2019-04-04T13:42:33.130Z,14.53
2019-04-04T13:44:37.065Z,14.23
2019-04-04T13:46:40.988Z,13.63
2019-04-04T13:48:44.927Z,13.00
2019-04-04T13:50:48.829Z,13.63
2019-04-04T13:52:52.864Z,14.47
2019-04-04T13:54:56.761Z,14.13
2019-04-04T13:57:00.668Z,15.17
2019-04-04T13:59:07.326Z,14.47
2019-04-04T14:01:11.220Z,15.77
2019-04-04T14:03:15.189Z,13.63
2019-04-04T14:05:19.137Z,14.40
2019-04-04T14:07:23.252Z,13.37
2019-04-04T14:09:27.190Z,14.67
2019-04-04T14:11:31.091Z,12.43
2019-04-04T14:13:35.024Z,13.97
2019-04-04T14:15:38.935Z,13.37
2019-04-04T14:17:43.885Z,13.63
2019-04-04T14:19:48.654Z,13.33
2019-04-04T14:21:53.319Z,12.40
2019-04-04T14:23:57.750Z,12.53
2019-04-04T14:26:02.088Z,12.30
2019-04-04T14:28:07.621Z,12.30
2019-04-04T14:30:12.516Z,11.60
2019-04-04T14:32:16.469Z,11.67
2019-04-04T14:34:20.362Z,11.30
2019-04-04T14:36:24.382Z,11.13
2019-04-04T14:38:29.127Z,10.83
2019-04-04T14:40:33.396Z,10.97
2019-04-04T14:42:37.288Z,11.70
2019-04-04T14:44:41.270Z,10.67
2019-04-04T14:46:45.609Z,10.77
2019-04-04T14:48:50.223Z,11.47
2019-04-04T14:50:54.489Z,11.60
2019-04-04T14:52:58.707Z,11.50
2019-04-04T14:55:02.625Z,10.33
2019-04-04T14:57:06.544Z,10.77
2019-04-04T14:59:10.981Z,11.07
2019-04-04T15:01:15.026Z,10.93
2019-04-04T15:03:18.930Z,12.00
2019-04-04T15:05:23.401Z,11.67
2019-04-04T15:07:27.476Z,12.03
2019-04-04T15:09:32.025Z,12.10
2019-04-04T15:11:35.932Z,11.93
2019-04-04T15:13:39.892Z,11.03
2019-04-04T15:15:49.948Z,11.07
2019-04-04T15:17:54.294Z,11.63
2019-04-04T15:19:58.472Z,12.73
2019-04-04T15:22:02.405Z,11.50
2019-04-04T15:24:06.392Z,12.07
2019-04-04T15:26:12.554Z,12.40
2019-04-04T15:28:17.004Z,11.90
2019-04-04T15:30:21.920Z,11.57
2019-04-04T15:32:26.332Z,11.23
2019-04-04T15:34:31.328Z,11.10
2019-04-04T15:36:35.501Z,11.20
2019-04-04T15:38:39.438Z,12.00
2019-04-04T15:40:43.374Z,10.17
2019-04-04T15:42:47.429Z,10.47
2019-04-04T15:44:51.328Z,9.53
2019-04-04T15:46:55.728Z,8.87
2019-04-04T15:48:59.637Z,8.43
2019-04-04T15:51:03.528Z,8.83
2019-04-04T15:53:08.044Z,8.00
2019-04-04T15:55:12.150Z,7.83
2019-04-04T15:57:16.031Z,8.13
2019-04-04T15:59:19.925Z,8.13
2019-04-04T16:01:23.847Z,8.10
2019-04-04T16:03:27.745Z,8.80
2019-04-04T16:05:31.632Z,9.70
2019-04-04T16:07:35.590Z,9.50
2019-04-04T16:09:39.489Z,9.73
2019-04-04T16:11:49.532Z,10.67
2019-04-04T16:13:49.003Z,10.17
2019-04-04T16:15:52.881Z,11.13
2019-04-04T16:17:56.782Z,10.97
2019-04-04T16:20:00.831Z,10.30
2019-04-04T16:22:04.727Z,11.10
2019-04-04T16:24:08.634Z,11.07
2019-04-04T16:26:12.539Z,10.40
2019-04-04T16:28:16.448Z,12.53
2019-04-04T16:30:20.429Z,12.00
2019-04-04T16:32:24.309Z,11.90
2019-04-04T16:34:28.216Z,12.13
2019-04-04T16:36:32.278Z,12.13
2019-04-04T16:38:36.154Z,11.83
2019-04-04T16:40:40.060Z,12.87
2019-04-04T16:42:43.969Z,12.80
2019-04-04T16:44:47.890Z,14.00
2019-04-04T16:46:51.862Z,13.93
2019-04-04T16:48:55.741Z,13.97
2019-04-04T16:50:59.646Z,12.63
2019-04-04T16:53:03.871Z,13.33
2019-04-04T16:55:08.073Z,12.67
2019-04-04T16:57:11.957Z,12.60
2019-04-04T16:59:15.943Z,10.63
2019-04-04T17:01:19.841Z,10.50
2019-04-04T17:03:23.723Z,10.53
2019-04-04T17:05:27.765Z,9.30
2019-04-04T17:07:31.694Z,9.30
2019-04-04T17:09:35.598Z,8.87
2019-04-04T17:11:39.524Z,8.13
2019-04-04T17:13:43.405Z,8.40
2019-04-04T17:15:47.349Z,9.47
2019-04-04T17:17:51.273Z,8.80
2019-04-04T17:19:55.182Z,9.00
2019-04-04T17:21:59.074Z,9.33
2019-04-04T17:24:03.145Z,9.17
2019-04-04T17:26:07.041Z,9.50
2019-04-04T17:28:11.109Z,10.33
2019-04-04T17:30:16.020Z,10.00
2019-04-04T17:32:20.142Z,8.73
2019-04-04T17:34:24.171Z,9.93
2019-04-04T17:36:28.466Z,9.10
2019-04-04T17:38:32.341Z,8.53
2019-04-04T17:40:36.271Z,8.03
2019-04-04T17:42:40.729Z,8.90
2019-04-04T17:44:44.741Z,8.70
2019-04-04T17:46:49.299Z,9.07
2019-04-04T17:48:53.273Z,8.90
2019-04-04T17:50:57.413Z,8.40
2019-04-04T17:53:01.648Z,8.50
2019-04-04T17:55:08.972Z,8.23
2019-04-04T17:57:13.087Z,9.03
2019-04-04T17:59:16.924Z,8.93
2019-04-04T18:01:20.819Z,9.07
2019-04-04T18:03:24.759Z,8.10
2019-04-04T18:05:28.638Z,9.20
2019-04-04T18:07:32.534Z,9.23
2019-04-04T18:09:36.617Z,8.97
2019-04-04T18:11:40.509Z,8.97
2019-04-04T18:13:44.394Z,9.70
2019-04-04T18:15:48.328Z,8.00
2019-04-04T18:17:52.218Z,8.97
2019-04-04T18:19:56.141Z,8.50
2019-04-04T18:22:00.096Z,8.87
2019-04-04T18:24:03.985Z,8.37
2019-04-04T18:26:07.932Z,9.27
2019-04-04T18:28:11.814Z,9.00
2019-04-04T18:30:16.601Z,8.50
2019-04-04T18:32:20.527Z,8.90
2019-04-04T18:34:24.423Z,8.63
2019-04-04T18:36:28.891Z,8.50
2019-04-04T18:38:33.211Z,8.43
2019-04-04T18:40:37.282Z,7.93
2019-04-04T18:42:52.684Z,8.17
2019-04-04T18:44:46.759Z,8.03
2019-04-04T18:46:50.690Z,8.37
2019-04-04T18:48:54.594Z,8.40
2019-04-04T18:50:58.880Z,8.50
2019-04-04T18:53:02.791Z,7.90
2019-04-04T18:55:18.989Z,8.37
2019-04-04T18:57:13.359Z,9.00
2019-04-04T18:59:17.357Z,8.53
2019-04-04T19:01:21.255Z,8.87
2019-04-04T19:03:25.592Z,8.10
2019-04-04T19:05:29.491Z,8.83
2019-04-04T19:07:39.307Z,9.47
2019-04-04T19:09:38.996Z,8.90
2019-04-04T19:11:42.971Z,9.27
2019-04-04T19:13:46.897Z,8.80
2019-04-04T19:15:50.853Z,8.03
2019-04-04T19:17:54.733Z,8.83
2019-04-04T19:19:58.692Z,8.67
2019-04-04T19:22:02.567Z,9.27
2019-04-04T19:24:06.469Z,9.60
2019-04-04T19:26:10.497Z,9.97
2019-04-04T19:28:14.372Z,9.30
2019-04-04T19:30:19.570Z,9.83
2019-04-04T19:32:23.557Z,9.93
2019-04-04T19:34:27.442Z,9.97
2019-04-04T19:36:31.309Z,10.03
2019-04-04T19:38:35.236Z,9.47
2019-04-04T19:40:39.166Z,10.17
2019-04-04T19:42:43.056Z,10.93
2019-04-04T19:44:53.030Z,11.23
2019-04-04T19:46:52.616Z,10.80
2019-04-04T19:48:56.597Z,10.97
2019-04-04T19:51:00.560Z,10.33
2019-04-04T19:53:04.455Z,10.77
2019-04-04T19:55:08.432Z,11.50
2019-04-04T19:57:12.344Z,10.63
2019-04-04T19:59:16.252Z,10.87
2019-04-04T20:01:20.209Z,10.90
2019-04-04T20:03:24.280Z,11.17
2019-04-04T20:05:28.160Z,10.73
2019-04-04T20:07:32.038Z,9.90
2019-04-04T20:09:35.993Z,12.23
2019-04-04T20:11:39.887Z,11.13
2019-04-04T20:13:43.768Z,11.53
2019-04-04T20:15:47.705Z,12.00
2019-04-04T20:17:51.596Z,11.33
2019-04-04T20:19:55.514Z,12.57
2019-04-04T20:21:59.431Z,11.97
2019-04-04T20:24:03.316Z,12.27
2019-04-04T20:26:10.282Z,12.67
2019-04-04T20:28:18.257Z,11.67
2019-04-04T20:30:37.196Z,12.17
2019-04-04T20:32:41.108Z,12.50
2019-04-04T20:34:46.810Z,11.90
2019-04-04T20:36:51.987Z,13.43
2019-04-04T20:38:55.877Z,14.07
2019-04-04T20:41:03.040Z,13.93
2019-04-04T20:43:06.999Z,14.33
2019-04-04T20:45:15.490Z,13.63
2019-04-04T20:47:24.771Z,13.00
2019-04-04T20:49:28.713Z,13.10
2019-04-04T20:51:32.617Z,14.13
2019-04-04T20:53:38.978Z,14.23
2019-04-04T20:55:44.155Z,13.27
2019-04-04T20:57:48.039Z,13.87
2019-04-04T20:59:51.991Z,14.00
2019-04-04T21:01:56.828Z,13.53
2019-04-04T21:04:01.688Z,12.87
2019-04-04T21:06:08.284Z,14.17
2019-04-04T21:08:15.864Z,13.60
2019-04-04T21:10:20.192Z,14.50
2019-04-04T21:12:26.444Z,13.87
2019-04-04T21:14:30.341Z,14.97
2019-04-04T21:16:34.242Z,15.73
2019-04-04T21:18:38.820Z,16.77
2019-04-04T21:20:45.534Z,15.53
2019-04-04T21:22:51.530Z,17.33
2019-04-04T21:24:55.409Z,15.43
2019-04-04T21:27:00.164Z,14.73
2019-04-04T21:29:04.073Z,15.30
2019-04-04T21:31:11.470Z,15.37
2019-04-04T21:33:15.334Z,15.13
2019-04-04T21:35:19.264Z,15.97
2019-04-04T21:37:24.789Z,15.77
2019-04-04T21:39:29.936Z,15.90
2019-04-04T21:41:34.054Z,15.50
2019-04-04T21:43:37.980Z,15.60
2019-04-04T21:45:42.155Z,15.50
2019-04-04T21:47:49.605Z,15.63
2019-04-04T21:49:56.366Z,16.17
2019-04-04T21:52:01.387Z,15.27
2019-04-04T21:54:08.379Z,15.17
2019-04-04T21:56:12.514Z,15.63
2019-04-04T21:58:20.746Z,15.00
2019-04-04T22:00:29.688Z,15.00
2019-04-04T22:02:35.815Z,14.80
2019-04-04T22:04:44.545Z,14.33
2019-04-04T22:06:56.413Z,14.47
2019-04-04T22:09:04.561Z,14.50
2019-04-04T22:11:14.935Z,13.37
2019-04-04T22:13:19.293Z,13.73
2019-04-04T22:15:25.878Z,13.70
2019-04-04T22:17:29.786Z,13.03
2019-04-04T22:19:33.833Z,14.87
2019-04-04T22:21:37.707Z,14.63
2019-04-04T22:23:41.608Z,12.87
2019-04-04T22:25:45.542Z,13.33
2019-04-04T22:27:51.274Z,14.20
2019-04-04T22:29:55.152Z,13.10
2019-04-04T22:31:59.200Z,13.10
2019-04-04T22:34:05.558Z,13.20
2019-04-04T22:36:09.437Z,12.17
2019-04-04T22:38:19.632Z,13.67
2019-04-04T22:40:25.490Z,12.63
2019-04-04T22:42:33.047Z,12.40
2019-04-04T22:44:37.369Z,12.73
2019-04-04T22:46:44.224Z,11.90
2019-04-04T22:48:48.509Z,13.53
2019-04-04T22:50:57.526Z,11.90
2019-04-04T22:53:05.979Z,13.20
2019-04-04T22:55:16.312Z,12.50
2019-04-04T22:57:24.055Z,12.63
2019-04-04T22:59:49.592Z,12.70
2019-04-04T23:02:01.210Z,12.87
2019-04-04T23:04:09.303Z,13.20
2019-04-04T23:06:20.372Z,13.07
2019-04-04T23:08:25.093Z,12.97
2019-04-04T23:10:32.341Z,14.33
2019-04-04T23:12:36.609Z,13.77
2019-04-04T23:14:47.812Z,13.53
2019-04-04T23:16:45.980Z,13.63
2019-04-04T23:18:49.879Z,14.23
2019-04-04T23:20:53.740Z,14.13
2019-04-04T23:22:57.612Z,14.47
2019-04-04T23:25:01.520Z,13.30
2019-04-04T23:27:05.372Z,14.37
2019-04-04T23:29:09.383Z,14.67
2019-04-04T23:31:13.249Z,14.77
2019-04-04T23:33:17.110Z,14.00
2019-04-04T23:35:21.066Z,12.27
2019-04-04T23:37:24.940Z,13.30
2019-04-04T23:39:28.807Z,12.47
2019-04-04T23:41:32.699Z,14.90
2019-04-04T23:43:36.561Z,13.40
2019-04-04T23:45:40.514Z,14.27
2019-04-04T23:47:44.374Z,12.07
2019-04-04T23:49:48.243Z,13.20
2019-04-04T23:51:52.148Z,12.07
2019-04-04T23:53:56.059Z,11.80
2019-04-04T23:55:59.927Z,12.40
2019-04-04T23:58:03.920Z,12.83
